CheckWX is a tool to help pilots better visualize weather data.  It is not intended as a substitute for an official pre-flight weather briefing.

12:30:01 UTC

URMT TAF
Stavropol Shpakovskoye Airport
Stavropol, Russian Federation
TAF URMT 261100Z 2612/2621 14005G11MPS 9999 SCT020 TEMPO 2615/2621 17003G08MPS

Mar-26@
12:00 UTC

Mar-26 @ 12:00 UTC

Mar-26@
21:00 UTC

Mar-26 @ 21:00 UTC

TAF URMT 261100Z 2612/2621 14005G11MPS 9999 SCT020
Wind
  • 140° at 10 KTS
  • {Gusting to 21 KTS
Cloud Levels
  • Scattered at 2,000' AGL

Mar-26@
15:00 UTC

Mar-26 @ 15:00 UTC

Mar-26@
21:00 UTC

Mar-26 @ 21:00 UTC

TEMPO 2615/2621 17003G08MPS

Temporary

Temporary Changes expected for less than half the time period

Wind
  • 170° at 6 KTS
  • {Gusting to 16 KTS